Time;durP1;ratioP1;P1;durP2;ratioP2;P2;SDS_P1;SDS_P2;PMS_P1;PMS_P2;Temp;Humidity;BMP_temperature;BMP_pressure;BME280_temperature;BME280_humidity;BME280_pressure;Samples;Min_cycle;Max_cycle;Signal;HPM_P1;HPM_P2
2022/07/21 00:02:19;;;;;;;9.50;7.50;;;;;;;24.03;51.76;98838.75;5094104;28;20056;-91
2022/07/21 00:04:45;;;;;;;9.77;7.80;;;;;;;24.13;51.84;98854.16;5094006;28;20040;-91
2022/07/21 00:07:11;;;;;;;9.48;7.72;;;;;;;24.20;51.94;98862.69;5093999;28;20038;-93
2022/07/21 00:09:37;;;;;;;11.20;7.75;;;;;;;24.16;52.24;98863.94;5092272;28;20044;-93
2022/07/21 00:12:05;;;;;;;10.02;8.00;;;;;;;24.17;52.21;98868.38;5093899;28;20556;-92
2022/07/21 00:14:31;;;;;;;9.32;7.32;;;;;;;24.03;52.86;98858.66;5092553;28;20040;-93
2022/07/21 00:16:58;;;;;;;9.70;7.15;;;;;;;23.94;53.60;98835.81;5093791;28;20093;-91
2022/07/21 00:19:24;;;;;;;7.72;6.93;;;;;;;24.07;54.19;98851.09;5092303;28;20048;-93
2022/07/21 00:21:49;;;;;;;7.97;6.20;;;;;;;24.20;54.03;98868.13;5092875;28;20044;-91
2022/07/21 00:24:15;;;;;;;8.60;7.05;;;;;;;24.19;54.07;98861.81;5093511;28;20446;-91
2022/07/21 00:26:42;;;;;;;8.13;7.32;;;;;;;24.26;54.33;98869.47;5093450;28;20040;-92
2022/07/21 00:29:09;;;;;;;8.18;7.38;;;;;;;24.24;54.35;98863.31;5092934;28;20040;-93
2022/07/21 00:31:35;;;;;;;8.93;7.90;;;;;;;24.30;54.80;98882.69;5092877;28;20051;-93
2022/07/21 00:34:00;;;;;;;10.23;7.22;;;;;;;24.33;54.78;98876.13;5092113;28;20493;-94
2022/07/21 00:36:26;;;;;;;9.95;7.20;;;;;;;24.31;54.80;98867.25;5092787;28;20076;-92
2022/07/21 00:38:52;;;;;;;10.80;7.03;;;;;;;24.43;54.77;98863.50;5092622;28;20040;-91
2022/07/21 00:41:18;;;;;;;9.52;7.03;;;;;;;24.37;55.11;98851.28;5090177;28;20578;-92
2022/07/21 00:43:44;;;;;;;9.45;7.20;;;;;;;24.37;54.88;98856.72;5092850;28;20047;-92
2022/07/21 00:46:11;;;;;;;8.85;7.30;;;;;;;24.30;55.19;98866.38;5092874;28;20134;-92
2022/07/21 00:48:37;;;;;;;7.93;6.57;;;;;;;24.26;55.76;98859.47;5091961;28;20040;-93
2022/07/21 00:51:03;;;;;;;8.23;6.55;;;;;;;24.16;56.04;98853.09;5092512;28;20351;-91
2022/07/21 00:53:29;;;;;;;7.30;6.03;;;;;;;23.96;56.50;98836.56;5092890;28;20047;-91
2022/07/21 00:55:55;;;;;;;7.72;6.10;;;;;;;23.97;56.43;98837.41;5093120;28;20101;-92
2022/07/21 00:58:23;;;;;;;7.50;6.30;;;;;;;24.02;56.55;98851.47;5092668;28;20074;-91
2022/07/21 01:00:49;;;;;;;7.50;6.40;;;;;;;23.93;56.93;98844.06;5093112;28;20033;-93
2022/07/21 01:03:18;;;;;;;6.95;6.25;;;;;;;23.72;57.31;98814.03;5093106;28;20071;-93
2022/07/21 01:05:44;;;;;;;10.20;6.30;;;;;;;23.67;56.82;98810.84;5093221;28;20048;-92
2022/07/21 01:08:11;;;;;;;8.35;6.30;;;;;;;23.53;57.45;98801.06;5092760;28;20393;-93
2022/07/21 01:10:37;;;;;;;8.88;6.35;;;;;;;23.66;57.77;98834.44;5093287;28;20044;-94
2022/07/21 01:13:03;;;;;;;14.00;6.38;;;;;;;23.56;58.15;98828.84;5093939;28;20844;-92
2022/07/21 01:15:29;;;;;;;7.55;5.88;;;;;;;23.44;58.79;98837.09;5094185;28;20050;-90
2022/07/21 01:17:55;;;;;;;9.80;6.28;;;;;;;23.31;58.88;98823.63;5093145;28;20535;-91
2022/07/21 01:20:24;;;;;;;10.55;6.40;;;;;;;23.23;58.82;98815.25;5092554;28;20047;-92
2022/07/21 01:22:55;;;;;;;7.75;6.30;;;;;;;23.40;59.18;98852.78;5092981;28;20044;-94
2022/07/21 01:25:22;;;;;;;9.25;6.47;;;;;;;23.29;59.23;98844.59;5091910;28;20048;-90
2022/07/21 01:27:49;;;;;;;9.07;6.75;;;;;;;23.32;59.31;98844.38;5093461;28;20040;-91
2022/07/21 01:30:16;;;;;;;8.07;6.53;;;;;;;23.29;59.35;98842.78;5092860;28;20052;-92
2022/07/21 01:32:42;;;;;;;10.93;6.57;;;;;;;23.01;59.70;98811.50;5093806;28;20775;-91
2022/07/21 01:35:10;;;;;;;10.73;6.50;;;;;;;23.04;59.95;98832.09;5094175;28;20060;-91
2022/07/21 01:37:39;;;;;;;7.75;6.72;;;;;;;23.00;60.20;98834.16;5092859;28;20081;-90
2022/07/21 01:43:11;;;;;;;8.15;6.45;;;;;;;22.89;61.11;98837.66;5094663;27;20388;-92
2022/07/21 01:45:37;;;;;;;8.82;6.82;;;;;;;22.83;60.82;98832.72;5093922;28;20866;-92
2022/07/21 01:48:05;;;;;;;7.78;6.60;;;;;;;22.66;61.72;98812.34;5099742;28;20123;-95
2022/07/21 01:50:31;;;;;;;9.32;7.20;;;;;;;22.67;61.46;98811.34;5094375;28;20171;-93
2022/07/21 01:52:58;;;;;;;9.80;7.00;;;;;;;22.63;61.85;98812.56;5096823;28;20053;-93
2022/07/21 01:55:25;;;;;;;8.02;7.22;;;;;;;22.61;61.71;98814.53;5092653;28;20064;-94
2022/07/21 01:57:52;;;;;;;10.68;6.93;;;;;;;22.66;62.15;98825.91;5090259;28;20119;-94
2022/07/21 02:00:20;;;;;;;8.75;7.22;;;;;;;22.67;62.28;98835.75;5094582;28;20027;-92
2022/07/21 02:02:46;;;;;;;9.55;7.45;;;;;;;22.68;62.74;98840.16;5093075;28;20396;-93
2022/07/21 02:05:12;;;;;;;8.50;7.10;;;;;;;22.63;62.89;98831.53;5096076;28;20090;-92
2022/07/21 02:07:38;;;;;;;8.93;7.85;;;;;;;22.64;63.16;98835.09;5091427;28;20079;-95
2022/07/21 02:10:05;;;;;;;10.02;7.60;;;;;;;22.66;63.64;98836.75;5095768;28;20044;-92
2022/07/21 02:12:31;;;;;;;11.70;7.70;;;;;;;22.62;63.80;98829.81;5092144;28;20367;-92
2022/07/21 02:14:57;;;;;;;9.35;7.75;;;;;;;22.63;64.03;98834.25;5092582;28;20086;-93
2022/07/21 02:17:24;;;;;;;10.73;7.88;;;;;;;22.61;64.38;98836.19;5096066;28;20036;-92
2022/07/21 02:19:50;;;;;;;11.30;8.20;;;;;;;22.59;65.10;98840.88;5095510;28;20505;-92
2022/07/21 02:22:15;;;;;;;11.02;7.90;;;;;;;22.44;64.71;98828.47;5093457;28;20060;-94
2022/07/21 02:24:41;;;;;;;9.80;7.85;;;;;;;22.35;64.94;98811.91;5096522;28;20032;-92
2022/07/21 02:27:07;;;;;;;11.50;7.70;;;;;;;22.40;64.90;98824.25;5097520;28;20063;-93
2022/07/21 02:29:33;;;;;;;9.55;8.40;;;;;;;22.32;65.61;98814.03;5094890;28;20054;-92
2022/07/21 02:32:00;;;;;;;10.88;8.18;;;;;;;22.33;66.11;98819.31;5096090;28;20040;-92
2022/07/21 02:34:27;;;;;;;12.60;8.45;;;;;;;22.30;66.46;98821.41;5096306;28;20047;-91
2022/07/21 02:36:53;;;;;;;9.55;8.45;;;;;;;22.23;66.41;98818.28;5093393;28;20048;-92
2022/07/21 02:39:19;;;;;;;10.38;8.70;;;;;;;22.22;66.44;98813.81;5095028;28;20040;-92
2022/07/21 02:41:45;;;;;;;15.07;8.65;;;;;;;22.24;67.00;98822.69;5095438;28;20060;-93
2022/07/21 02:44:11;;;;;;;10.68;8.02;;;;;;;22.32;67.21;98832.97;5092582;28;20049;-92
2022/07/21 02:46:36;;;;;;;12.60;8.00;;;;;;;22.26;67.41;98823.44;5094299;28;20065;-92
2022/07/21 02:49:02;;;;;;;11.43;8.43;;;;;;;22.35;67.33;98841.72;5093082;28;20033;-92
2022/07/21 02:51:29;;;;;;;11.48;8.35;;;;;;;22.18;66.83;98823.13;5094324;28;20047;-92
2022/07/21 02:53:56;;;;;;;11.65;7.72;;;;;;;22.03;64.91;98813.41;5083692;28;20582;-93
2022/07/21 02:56:22;;;;;;;10.38;7.60;;;;;;;21.98;63.18;98816.47;5079428;28;20051;-92
2022/07/21 02:58:48;;;;;;;12.15;7.78;;;;;;;22.00;64.03;98830.75;5080830;28;20119;-92
2022/07/21 03:01:14;;;;;;;13.88;8.60;;;;;;;21.91;66.41;98813.34;5080521;28;20051;-94
2022/07/21 03:03:39;;;;;;;10.02;8.13;;;;;;;21.92;68.71;98823.22;5080223;28;20036;-92
2022/07/21 03:06:06;;;;;;;10.90;8.77;;;;;;;21.90;69.61;98819.75;5080398;28;20048;-92
2022/07/21 03:08:34;;;;;;;13.65;8.63;;;;;;;21.97;70.27;98838.22;5079742;28;20468;-92
2022/07/21 03:11:00;;;;;;;15.07;8.80;;;;;;;21.89;70.15;98823.41;5082066;28;20559;-94
2022/07/21 03:13:26;;;;;;;10.63;8.85;;;;;;;21.89;70.59;98825.28;5082966;28;20047;-94
2022/07/21 03:15:52;;;;;;;10.60;8.77;;;;;;;21.78;70.48;98804.41;5079077;28;20689;-93
2022/07/21 03:18:17;;;;;;;9.95;8.05;;;;;;;21.79;69.04;98813.38;5081891;28;20070;-94
2022/07/21 03:20:44;;;;;;;9.95;7.70;;;;;;;21.76;66.70;98810.91;5078195;28;20695;-93
2022/07/21 03:23:10;;;;;;;10.50;7.00;;;;;;;21.82;65.23;98824.84;5083928;28;20040;-92
2022/07/21 03:25:38;;;;;;;8.43;6.82;;;;;;;21.70;64.12;98812.19;5081905;28;20040;-94
2022/07/21 03:28:05;;;;;;;9.63;6.80;;;;;;;21.72;63.83;98827.34;5078765;28;20044;-92
2022/07/21 03:30:31;;;;;;;13.07;7.65;;;;;;;21.65;66.40;98823.34;5079246;28;20090;-92
2022/07/21 03:32:57;;;;;;;12.27;8.45;;;;;;;21.65;68.20;98830.63;5077630;28;20037;-93
2022/07/21 03:35:23;;;;;;;11.98;9.20;;;;;;;21.62;70.93;98830.81;5077314;28;20998;-94
2022/07/21 03:37:52;;;;;;;10.27;8.50;;;;;;;21.50;71.76;98813.63;5078321;28;20040;-93
2022/07/21 03:40:22;;;;;;;9.30;8.32;;;;;;;21.60;70.13;98821.94;5077066;28;20046;-90
2022/07/21 03:42:50;;;;;;;11.82;8.63;;;;;;;21.48;70.55;98812.88;5078950;28;20136;-93
2022/07/21 03:45:16;;;;;;;9.48;7.30;;;;;;;21.44;67.40;98817.63;5081725;28;20098;-93
2022/07/21 03:47:42;;;;;;;8.38;7.30;;;;;;;21.46;65.74;98829.22;5081616;28;20036;-92
2022/07/21 03:50:11;;;;;;;10.30;7.63;;;;;;;21.37;68.30;98816.31;5082210;28;20044;-93
2022/07/21 03:52:37;;;;;;;;;;;;;;;21.50;68.49;98851.50;5082603;28;20082;-92
2022/07/21 03:55:14;;;;;;;10.50;8.05;;;;;;;21.41;68.14;98850.31;5080018;28;19920;-92
2022/07/21 03:57:42;;;;;;;9.82;8.07;;;;;;;21.42;69.46;98857.44;5079316;28;20498;-94
2022/07/21 04:00:12;;;;;;;11.25;9.18;;;;;;;21.27;70.65;98828.75;5086112;28;20132;-94
2022/07/21 04:02:38;;;;;;;12.38;8.50;;;;;;;21.34;70.36;98849.00;5074676;28;20452;-92
2022/07/21 04:05:05;;;;;;;11.45;8.07;;;;;;;21.18;70.12;98829.38;5081690;28;20036;-95
2022/07/21 04:07:30;;;;;;;10.70;8.27;;;;;;;21.19;69.59;98832.00;5080569;28;20405;-93
2022/07/21 04:09:56;;;;;;;9.55;8.55;;;;;;;21.28;70.78;98838.59;5080025;28;20056;-92
2022/07/21 04:12:25;;;;;;;11.57;8.65;;;;;;;21.27;71.72;98831.44;5082780;28;20489;-91
2022/07/21 04:14:51;;;;;;;;;;;;;;;21.50;72.39;98865.91;5079727;28;20064;-92
2022/07/21 04:17:18;;;;;;;9.60;8.60;;;;;;;21.54;72.00;98869.25;5078720;28;19925;-90
2022/07/21 04:19:44;;;;;;;12.82;8.32;;;;;;;21.57;73.00;98869.03;5077899;28;20070;-91
2022/07/21 04:22:09;;;;;;;9.82;8.20;;;;;;;21.55;71.19;98862.88;5078289;28;20064;-92
2022/07/21 04:24:35;;;;;;;10.75;7.47;;;;;;;21.55;69.03;98876.41;5080275;28;20036;-94
2022/07/21 04:27:01;;;;;;;10.23;6.88;;;;;;;21.44;66.79;98852.81;5077469;28;20041;-94
2022/07/21 04:29:28;;;;;;;11.52;7.22;;;;;;;21.47;65.82;98860.72;5080982;28;20033;-93
2022/07/21 04:31:54;;;;;;;10.77;7.30;;;;;;;21.39;65.87;98852.22;5082174;28;20049;-94
2022/07/21 04:34:21;;;;;;;11.07;6.32;;;;;;;21.43;64.55;98852.94;5078411;28;20048;-93
2022/07/21 04:36:47;;;;;;;9.00;6.72;;;;;;;21.43;64.32;98861.91;5078356;28;20060;-93
2022/07/21 04:39:13;;;;;;;8.82;6.90;;;;;;;21.25;64.97;98838.78;5075984;28;20133;-94
2022/07/21 04:41:39;;;;;;;9.95;6.63;;;;;;;21.40;64.43;98859.38;5076608;28;20581;-93
2022/07/21 04:44:04;;;;;;;8.38;6.53;;;;;;;21.34;64.53;98851.69;5081390;28;20090;-92
2022/07/21 04:46:30;;;;;;;11.02;6.45;;;;;;;21.39;65.10;98856.78;5082041;28;20067;-92
2022/07/21 04:48:56;;;;;;;10.93;7.05;;;;;;;21.52;65.40;98874.78;5077753;28;20042;-92
2022/07/21 04:51:23;;;;;;;10.38;6.75;;;;;;;21.40;64.50;98848.53;5076351;28;20041;-92
2022/07/21 04:53:49;;;;;;;8.93;6.70;;;;;;;21.50;65.13;98857.78;5079545;28;20710;-92
2022/07/21 04:56:15;;;;;;;12.88;6.53;;;;;;;21.52;64.58;98858.53;5087880;28;20067;-93
2022/07/21 04:58:41;;;;;;;9.48;6.40;;;;;;;21.68;63.62;98868.28;5076020;28;20076;-95
2022/07/21 05:01:06;;;;;;;8.82;6.28;;;;;;;21.68;63.21;98869.13;5079471;28;20032;-94
2022/07/21 05:03:32;;;;;;;7.95;6.20;;;;;;;21.79;61.79;98872.91;5078529;28;20045;-95
2022/07/21 05:05:58;;;;;;;10.27;5.82;;;;;;;21.82;61.30;98876.28;5081382;28;20048;-96
2022/07/21 05:08:27;;;;;;;12.60;6.40;;;;;;;21.70;60.69;98853.66;5076987;28;20033;-93
2022/07/21 05:10:53;;;;;;;10.02;5.78;;;;;;;22.10;60.64;98875.16;5080575;28;20045;-93
2022/07/21 05:13:19;;;;;;;11.43;5.93;;;;;;;22.62;59.47;98865.06;5080421;28;20063;-92
2022/07/21 05:15:45;;;;;;;9.18;6.80;;;;;;;23.03;57.43;98855.66;5078936;28;20044;-94
2022/07/21 05:18:10;;;;;;;8.88;6.25;;;;;;;23.37;56.68;98850.28;5076843;28;20049;-94
2022/07/21 05:20:36;;;;;;;9.38;6.00;;;;;;;23.80;54.35;98863.22;5081685;28;20113;-94
2022/07/21 05:23:02;;;;;;;8.77;6.00;;;;;;;24.23;54.45;98883.34;5080184;28;20104;-93
2022/07/21 05:25:31;;;;;;;7.97;6.00;;;;;;;24.44;55.06;98877.97;5079338;28;20052;-93
2022/07/21 05:27:58;;;;;;;7.88;5.90;;;;;;;24.57;52.65;98867.81;5083500;28;20125;-92
2022/07/21 05:30:24;;;;;;;10.65;6.07;;;;;;;24.82;52.04;98860.34;5076947;28;20064;-94
2022/07/21 05:32:49;;;;;;;8.73;5.80;;;;;;;25.03;50.31;98858.53;5079970;28;20067;-93
2022/07/21 05:35:16;;;;;;;7.93;5.55;;;;;;;25.25;49.34;98862.16;5079724;28;20036;-92
2022/07/21 05:37:42;;;;;;;7.75;5.85;;;;;;;25.23;48.88;98856.84;5081267;28;20444;-92
2022/07/21 05:40:09;;;;;;;8.40;6.00;;;;;;;24.92;49.58;98864.88;5076984;28;20109;-94
2022/07/21 05:42:37;;;;;;;7.75;5.60;;;;;;;25.07;48.99;98865.44;5085402;28;20048;-92
2022/07/21 05:45:03;;;;;;;8.30;5.65;;;;;;;25.30;49.28;98871.63;5084461;28;20036;-92
2022/07/21 05:47:31;;;;;;;10.40;5.50;;;;;;;25.42;49.06;98861.56;5081282;28;20497;-94
2022/07/21 05:49:57;;;;;;;8.45;5.55;;;;;;;25.66;47.93;98864.00;5078656;28;20044;-93
2022/07/21 05:52:22;;;;;;;15.32;6.32;;;;;;;25.69;47.79;98880.06;5078333;28;20375;-92
2022/07/21 05:54:48;;;;;;;9.18;6.65;;;;;;;25.67;47.91;98864.84;5077443;28;20131;-95
2022/07/21 05:57:14;;;;;;;9.80;6.30;;;;;;;25.86;47.77;98884.03;5078298;28;20127;-93
2022/07/21 05:59:41;;;;;;;9.20;5.70;;;;;;;25.88;47.87;98879.34;5074837;28;20593;-94
2022/07/21 06:02:07;;;;;;;11.25;5.88;;;;;;;25.91;47.22;98862.69;5075028;28;20032;-93
2022/07/21 06:04:33;;;;;;;9.02;6.15;;;;;;;26.07;47.24;98886.75;5078101;28;20089;-94
2022/07/21 06:06:59;;;;;;;7.47;5.75;;;;;;;26.19;46.61;98882.88;5078295;28;20128;-94
2022/07/21 06:09:25;;;;;;;7.35;5.03;;;;;;;25.90;48.24;98877.34;5080878;28;20051;-94
2022/07/21 06:11:51;;;;;;;6.32;4.90;;;;;;;25.91;48.08;98870.00;5079776;28;20058;-94
2022/07/21 06:14:17;;;;;;;8.80;5.80;;;;;;;26.01;47.55;98890.84;5081897;28;20098;-93
2022/07/21 06:16:44;;;;;;;8.23;5.20;;;;;;;26.23;47.50;98880.75;5082485;28;20044;-94
2022/07/21 06:19:10;;;;;;;7.10;5.15;;;;;;;26.32;47.17;98890.81;5082301;28;20067;-93
2022/07/21 06:21:36;;;;;;;7.70;5.45;;;;;;;26.07;47.06;98861.31;5082919;28;20490;-92
2022/07/21 06:24:02;;;;;;;8.98;5.53;;;;;;;26.17;46.71;98859.50;5083082;28;20051;-93
2022/07/21 06:26:28;;;;;;;7.28;5.57;;;;;;;26.14;47.56;98873.41;5085252;28;20064;-94
2022/07/21 06:28:54;;;;;;;6.40;5.40;;;;;;;25.94;47.59;98897.00;5084172;28;20059;-93
2022/07/21 06:31:21;;;;;;;6.43;5.40;;;;;;;25.72;48.57;98889.81;5081517;28;20119;-93
2022/07/21 06:33:48;;;;;;;7.30;5.30;;;;;;;25.66;48.56;98861.28;5084250;28;20040;-94
2022/07/21 06:36:14;;;;;;;5.80;4.97;;;;;;;26.18;47.13;98893.94;5087438;28;20043;-95
2022/07/21 06:38:39;;;;;;;7.55;5.15;;;;;;;26.30;46.24;98887.38;5088153;28;20036;-94
2022/07/21 06:41:06;;;;;;;11.38;5.50;;;;;;;26.40;46.63;98887.41;5079560;28;20060;-96
2022/07/21 06:43:32;;;;;;;6.82;5.50;;;;;;;26.47;45.64;98888.56;5078074;28;20076;-94
2022/07/21 06:45:58;;;;;;;7.95;5.60;;;;;;;26.39;46.40;98883.84;5078720;28;20143;-94
2022/07/21 06:48:24;;;;;;;9.40;6.00;;;;;;;26.27;46.73;98882.22;5084924;28;20040;-93
2022/07/21 06:50:53;;;;;;;7.97;5.40;;;;;;;26.47;46.51;98893.19;5081640;28;20047;-95
2022/07/21 06:53:18;;;;;;;;;;;;;;;26.72;46.36;98900.88;5078529;28;20140;-92
2022/07/21 06:55:45;;;;;;;8.98;5.57;;;;;;;26.74;45.79;98893.41;5079777;28;19963;-96
2022/07/21 06:58:12;;;;;;;10.30;5.60;;;;;;;26.70;46.12;98889.25;5082270;28;20084;-94
2022/07/21 07:00:38;;;;;;;8.95;5.43;;;;;;;26.68;46.27;98890.41;5083456;28;20123;-93
2022/07/21 07:03:04;;;;;;;8.00;5.28;;;;;;;26.93;45.90;98869.88;5090449;28;20127;-94
2022/07/21 07:05:30;;;;;;;6.80;5.60;;;;;;;27.27;45.74;98889.44;5089627;28;20076;-94
2022/07/21 07:07:57;;;;;;;9.88;5.85;;;;;;;27.58;43.86;98881.06;5076749;28;20055;-94
2022/07/21 07:10:23;;;;;;;7.35;5.32;;;;;;;27.85;43.97;98888.50;5083420;28;20044;-94
2022/07/21 07:12:49;;;;;;;10.18;6.03;;;;;;;28.08;43.77;98878.03;5081459;28;20055;-94
2022/07/21 07:15:15;;;;;;;9.60;5.65;;;;;;;28.18;43.30;98887.06;5078800;28;20526;-94
2022/07/21 07:17:41;;;;;;;6.80;5.63;;;;;;;28.16;43.10;98860.91;5076535;28;20041;-94
2022/07/21 07:20:08;;;;;;;7.00;5.32;;;;;;;28.26;43.74;98873.50;5082827;28;20054;-91
2022/07/21 07:22:34;;;;;;;8.30;5.75;;;;;;;28.35;43.29;98876.34;5080054;28;20032;-93
2022/07/21 07:25:02;;;;;;;7.13;5.53;;;;;;;28.45;42.32;98861.59;5079731;28;20046;-92
2022/07/21 07:27:28;;;;;;;7.27;5.40;;;;;;;28.63;44.08;98864.41;5084112;28;20086;-92
2022/07/21 07:29:53;;;;;;;6.68;5.60;;;;;;;28.65;42.31;98851.41;5078560;28;20048;-91
2022/07/21 07:32:19;;;;;;;10.25;6.13;;;;;;;28.78;42.34;98859.25;5079248;28;20105;-90
2022/07/21 07:34:45;;;;;;;11.68;6.15;;;;;;;28.50;42.99;98880.31;5088287;28;20044;-92
2022/07/21 07:37:11;;;;;;;8.95;5.65;;;;;;;28.74;42.47;98874.25;5082690;28;20047;-92
2022/07/21 07:39:37;;;;;;;9.00;5.50;;;;;;;29.03;42.57;98876.75;5085201;28;20033;-92
2022/07/21 07:42:05;;;;;;;9.40;5.72;;;;;;;29.04;41.14;98870.28;5081091;28;20082;-93
2022/07/21 07:44:31;;;;;;;9.43;5.73;;;;;;;29.15;41.58;98869.22;5082267;28;20028;-92
2022/07/21 07:46:57;;;;;;;8.13;5.13;;;;;;;29.42;41.22;98875.59;5082914;28;20049;-92
2022/07/21 07:49:23;;;;;;;7.80;5.38;;;;;;;29.67;40.88;98847.34;5086861;28;20041;-94
2022/07/21 07:51:49;;;;;;;6.75;5.38;;;;;;;29.97;39.84;98842.41;5083260;28;20048;-92
2022/07/21 07:54:15;;;;;;;8.25;5.60;;;;;;;30.22;39.06;98839.78;5083496;28;20032;-91
2022/07/21 07:56:41;;;;;;;7.65;5.45;;;;;;;30.30;39.39;98826.13;5082636;28;20060;-92
2022/07/21 07:59:09;;;;;;;7.95;5.45;;;;;;;30.56;39.70;98847.09;5081281;28;20397;-93
2022/07/21 08:01:35;;;;;;;8.23;5.28;;;;;;;30.50;39.67;98827.53;5083533;28;20056;-92
2022/07/21 08:04:01;;;;;;;8.43;5.63;;;;;;;30.80;39.36;98858.16;5083081;28;20110;-91
2022/07/21 08:06:27;;;;;;;7.55;5.82;;;;;;;30.78;38.98;98840.13;5077726;28;20063;-92
2022/07/21 08:08:53;;;;;;;8.02;5.63;;;;;;;30.63;38.67;98829.81;5083327;28;20039;-93
2022/07/21 08:11:19;;;;;;;7.82;5.78;;;;;;;30.62;39.05;98846.44;5100155;28;20052;-94
2022/07/21 08:13:45;;;;;;;7.43;5.95;;;;;;;30.78;38.50;98857.47;5082413;28;20032;-95
2022/07/21 08:16:15;;;;;;;9.68;6.07;;;;;;;30.53;38.56;98820.84;5084410;28;20040;-93
2022/07/21 08:18:41;;;;;;;6.80;5.97;;;;;;;30.75;38.93;98821.25;5086158;28;20045;-93
2022/07/21 08:21:07;;;;;;;8.45;5.63;;;;;;;30.98;38.90;98832.47;5080257;28;20040;-92
2022/07/21 08:23:33;;;;;;;9.02;6.00;;;;;;;30.87;37.92;98826.28;5083118;28;20040;-94
2022/07/21 08:25:58;;;;;;;8.48;5.95;;;;;;;31.16;37.42;98824.91;5082070;28;20432;-92
2022/07/21 08:28:24;;;;;;;7.75;5.53;;;;;;;31.23;35.92;98812.22;5086808;28;20518;-94
2022/07/21 08:30:50;;;;;;;7.60;5.55;;;;;;;31.37;36.71;98845.50;5083212;28;20133;-91
2022/07/21 08:33:18;;;;;;;8.68;5.63;;;;;;;30.82;37.07;98809.44;5083692;28;20044;-90
2022/07/21 08:35:44;;;;;;;6.78;5.70;;;;;;;30.75;37.06;98830.31;5082441;28;20105;-91
2022/07/21 08:38:11;;;;;;;9.27;5.80;;;;;;;31.16;37.14;98838.63;5080968;28;20048;-91
2022/07/21 08:40:39;;;;;;;7.55;5.60;;;;;;;31.25;36.78;98828.50;5079838;28;20123;-94
2022/07/21 08:43:06;;;;;;;;;;;;;;;31.58;36.93;98842.28;5085229;28;20044;-91
2022/07/21 08:45:32;;;;;;;8.55;5.90;;;;;;;31.42;36.09;98827.50;5084369;28;19973;-91
2022/07/21 08:47:59;;;;;;;7.13;5.78;;;;;;;30.90;36.76;98808.59;5080745;28;20037;-91
2022/07/21 08:50:29;;;;;;;8.57;6.37;;;;;;;31.32;37.03;98807.56;5078501;28;20166;-91
2022/07/21 08:52:55;;;;;;;8.02;6.35;;;;;;;31.80;36.05;98827.78;5079723;28;20123;-93
2022/07/21 08:55:22;;;;;;;8.18;7.28;;;;;;;31.81;35.33;98814.88;5079624;28;20083;-91
2022/07/21 08:57:48;;;;;;;8.65;7.57;;;;;;;32.20;34.67;98825.94;5082792;28;20040;-90
2022/07/21 09:00:14;;;;;;;12.00;8.10;;;;;;;31.70;35.64;98838.09;5079395;28;20085;-90
2022/07/21 09:02:43;;;;;;;10.13;7.78;;;;;;;31.48;35.55;98812.22;5079351;28;20436;-91
2022/07/21 09:05:10;;;;;;;11.20;7.78;;;;;;;31.86;35.89;98809.72;5081890;28;20032;-91
2022/07/21 09:07:49;;;;;;;10.95;7.60;;;;;;;32.20;34.52;98834.19;5082213;28;20094;-95
2022/07/21 09:10:22;;;;;;;8.38;7.05;;;;;;;32.25;34.17;98806.13;5080472;28;20083;-93
2022/07/21 09:12:50;;;;;;;10.70;8.02;;;;;;;32.56;33.81;98819.09;5082663;28;20120;-94
2022/07/21 09:15:18;;;;;;;9.35;8.35;;;;;;;32.85;33.75;98818.38;5079375;28;20064;-94
2022/07/21 09:17:44;;;;;;;9.38;8.43;;;;;;;32.78;32.16;98806.38;5079491;28;20040;-91
2022/07/21 09:20:21;;;;;;;10.43;8.35;;;;;;;32.79;32.86;98802.56;5083599;28;20040;-91
2022/07/21 09:23:07;;;;;;;10.82;7.88;;;;;;;32.25;33.42;98796.00;5078159;28;20033;-93
2022/07/21 09:25:36;;;;;;;12.52;8.15;;;;;;;32.72;33.12;98799.69;5078157;28;20100;-92
2022/07/21 09:28:11;;;;;;;13.02;9.13;;;;;;;33.12;32.40;98826.09;5082868;28;20060;-92
2022/07/21 09:30:51;;;;;;;13.05;9.25;;;;;;;33.17;32.46;98810.91;5088885;28;20044;-94
2022/07/21 09:33:22;;;;;;;12.38;9.80;;;;;;;32.78;32.63;98821.00;5080387;28;20064;-92
2022/07/21 09:35:58;;;;;;;11.63;10.00;;;;;;;31.56;34.17;98798.44;5082493;28;20044;-95
2022/07/21 09:38:26;;;;;;;11.75;9.38;;;;;;;32.24;34.26;98810.78;5079669;28;20064;-92
2022/07/21 09:40:52;;;;;;;11.23;9.20;;;;;;;32.61;33.46;98813.88;5080953;28;20033;-93
2022/07/21 09:43:33;;;;;;;10.90;9.80;;;;;;;32.51;33.12;98806.69;5080491;28;20050;-92
2022/07/21 09:46:01;;;;;;;13.15;10.52;;;;;;;32.48;32.80;98796.03;5086056;28;20040;-94
2022/07/21 09:48:34;;;;;;;10.70;9.60;;;;;;;32.77;31.36;98794.50;5080169;28;20044;-95
2022/07/21 09:51:20;;;;;;;11.57;9.90;;;;;;;33.27;31.19;98817.88;5081010;28;20040;-95
2022/07/21 09:53:53;;;;;;;11.43;9.10;;;;;;;33.62;30.89;98800.88;5078574;28;20060;-93
2022/07/21 09:56:19;;;;;;;12.95;10.68;;;;;;;33.52;30.71;98776.28;5077493;28;20047;-92
2022/07/21 09:58:46;;;;;;;14.52;10.18;;;;;;;33.62;30.61;98790.69;5082587;28;20517;-93
2022/07/21 10:01:13;;;;;;;12.67;10.07;;;;;;;33.50;30.88;98770.09;5085571;28;20226;-92
2022/07/21 10:03:39;;;;;;;15.75;11.05;;;;;;;33.62;30.66;98793.44;5079798;28;20516;-95
2022/07/21 10:06:06;;;;;;;16.80;10.85;;;;;;;33.86;30.59;98786.78;5081157;28;20037;-95
2022/07/21 10:08:34;;;;;;;12.75;11.13;;;;;;;33.70;30.54;98798.00;5084292;28;20396;-95
2022/07/21 10:11:01;;;;;;;;;;;;;;;33.84;30.70;98796.31;5084321;28;20079;-93
2022/07/21 10:13:27;;;;;;;14.77;11.17;;;;;;;33.84;30.73;98765.97;5085608;28;19958;-96
2022/07/21 10:15:54;;;;;;;12.23;10.57;;;;;;;34.10;30.54;98768.22;5083548;28;20044;-94
2022/07/21 10:18:24;;;;;;;15.73;11.25;;;;;;;34.39;30.07;98792.16;5090951;28;20060;-92
2022/07/21 10:20:59;;;;;;;13.98;11.95;;;;;;;34.28;30.05;98771.44;5085895;28;20032;-93
2022/07/21 10:23:35;;;;;;;13.15;11.75;;;;;;;34.40;30.19;98780.09;5084855;28;20068;-92
2022/07/21 10:26:05;;;;;;;14.38;11.82;;;;;;;34.29;29.78;98759.38;5081978;28;20111;-94
2022/07/21 10:28:32;;;;;;;14.80;11.73;;;;;;;34.35;29.39;98746.66;5084582;28;20375;-92
2022/07/21 10:30:59;;;;;;;14.15;11.55;;;;;;;34.52;29.14;98761.09;5084754;28;20100;-92
2022/07/21 10:33:56;;;;;;;13.77;12.00;;;;;;;34.64;29.40;98754.03;5088463;28;20040;-94
2022/07/21 10:36:44;;;;;;;15.73;11.85;;;;;;;34.83;29.21;98757.19;5089439;28;20501;-95
2022/07/21 10:39:18;;;;;;;14.07;11.52;;;;;;;34.62;29.43;98760.78;5082386;28;20519;-94
2022/07/21 10:41:48;;;;;;;14.48;12.07;;;;;;;34.70;29.21;98738.56;5083418;28;20063;-94
2022/07/21 10:44:43;;;;;;;13.95;12.48;;;;;;;35.02;29.07;98761.19;5080128;28;20079;-93
2022/07/21 10:47:10;;;;;;;15.43;12.68;;;;;;;35.11;28.58;98758.09;5089057;28;20071;-92
2022/07/21 10:49:47;;;;;;;15.35;13.30;;;;;;;35.18;28.42;98749.88;5084284;28;20639;-92
2022/07/21 10:52:50;;;;;;;15.43;13.43;;;;;;;35.31;27.75;98755.50;5086570;28;20048;-91
2022/07/21 10:55:23;;;;;;;18.75;13.45;;;;;;;35.18;28.27;98745.22;5080582;28;20032;-91
2022/07/21 10:58:23;;;;;;;16.45;14.75;;;;;;;35.14;27.49;98727.31;5085328;28;20051;-94
2022/07/21 11:00:51;;;;;;;17.13;15.32;;;;;;;35.38;26.63;98734.28;5085343;28;20040;-90
2022/07/21 11:03:23;;;;;;;19.87;16.80;;;;;;;35.40;26.14;98717.50;5082428;28;20032;-91
2022/07/21 11:06:23;;;;;;;19.05;17.15;;;;;;;35.73;25.58;98747.31;5082930;28;20062;-92
2022/07/21 11:08:51;;;;;;;20.55;18.45;;;;;;;35.74;25.49;98746.22;5082742;28;20048;-95
2022/07/21 11:11:19;;;;;;;22.30;19.83;;;;;;;35.56;24.38;98730.16;5084374;28;20053;-95
2022/07/21 11:14:00;;;;;;;22.60;19.80;;;;;;;35.45;25.18;98719.66;5083234;28;20043;-96
2022/07/21 11:17:07;;;;;;;21.65;19.35;;;;;;;35.45;25.40;98705.81;5083021;28;20064;-96
2022/07/21 11:19:37;;;;;;;20.88;18.75;;;;;;;35.65;24.65;98705.97;5069011;28;20076;-96
2022/07/21 11:22:06;;;;;;;21.95;19.75;;;;;;;35.74;24.35;98713.03;5090704;28;20429;-92
2022/07/21 11:24:33;;;;;;;21.38;19.08;;;;;;;35.85;22.19;98711.59;5082291;28;20041;-92
2022/07/21 11:27:02;;;;;;;21.30;19.03;;;;;;;36.08;22.23;98714.88;5083793;28;20067;-93
2022/07/21 11:29:30;;;;;;;21.77;19.58;;;;;;;36.10;20.95;98703.63;5082282;28;20032;-94
2022/07/21 11:31:58;;;;;;;21.80;19.60;;;;;;;36.01;20.62;98713.16;5082670;28;20047;-90
2022/07/21 11:34:24;;;;;;;;;;;;;;;36.02;21.99;98706.56;5082870;28;20096;-93
2022/07/21 11:36:59;;;;;;;22.05;19.85;;;;;;;36.02;21.05;98681.66;5087541;28;19935;-91